createdAt,value
2017-09-09T00:02:03.048Z,93.20
2017-09-09T00:04:30.784Z,93.20
2017-09-09T00:06:58.541Z,93.20
2017-09-09T00:09:26.040Z,93.30
2017-09-09T00:11:53.745Z,93.20
2017-09-09T00:14:21.245Z,93.20
2017-09-09T00:16:48.902Z,93.10
2017-09-09T00:19:16.408Z,93.10
2017-09-09T00:21:44.180Z,93.10
2017-09-09T00:24:11.697Z,93.30
2017-09-09T00:26:39.207Z,93.30
2017-09-09T00:29:06.888Z,93.40
2017-09-09T00:31:34.395Z,93.40
2017-09-09T00:34:02.153Z,93.10
2017-09-09T00:36:29.697Z,92.50
2017-09-09T00:38:57.972Z,92.40
2017-09-09T00:41:25.632Z,92.40
2017-09-09T00:43:53.152Z,92.20
2017-09-09T00:46:20.657Z,92.10
2017-09-09T00:48:48.173Z,92.30
2017-09-09T00:51:15.683Z,92.60
2017-09-09T00:53:43.202Z,92.90
2017-09-09T00:56:10.732Z,92.70
2017-09-09T00:58:38.521Z,92.80
2017-09-09T01:01:06.853Z,92.90
2017-09-09T01:03:34.348Z,92.60
2017-09-09T01:06:02.111Z,92.50
2017-09-09T01:08:29.888Z,92.40
2017-09-09T01:10:57.625Z,92.30
2017-09-09T01:13:26.024Z,92.40
2017-09-09T01:15:53.545Z,92.10
2017-09-09T01:18:21.049Z,92.00
2017-09-09T01:20:48.570Z,91.90
2017-09-09T01:23:16.067Z,92.00
2017-09-09T01:25:43.599Z,91.80
2017-09-09T01:28:11.105Z,91.90
2017-09-09T01:30:38.607Z,91.80
2017-09-09T01:33:06.248Z,91.90
2017-09-09T01:35:33.830Z,91.80
2017-09-09T01:38:01.487Z,92.00
2017-09-09T01:40:29.004Z,92.10
2017-09-09T01:42:56.685Z,92.10
2017-09-09T01:45:24.476Z,92.20
2017-09-09T01:47:51.984Z,92.30
2017-09-09T01:50:19.487Z,92.20
2017-09-09T01:52:47.125Z,92.20
2017-09-09T01:55:14.632Z,92.20
2017-09-09T01:57:42.380Z,92.30
2017-09-09T02:00:09.880Z,92.30
2017-09-09T02:02:37.384Z,92.40
2017-09-09T02:05:05.024Z,92.30
2017-09-09T02:07:32.540Z,92.40
2017-09-09T02:10:00.263Z,92.50
2017-09-09T02:12:27.776Z,92.50
2017-09-09T02:14:55.286Z,92.50
2017-09-09T02:17:22.816Z,92.50
2017-09-09T02:19:50.374Z,92.40
2017-09-09T02:22:17.976Z,92.40
2017-09-09T02:24:45.536Z,92.60
2017-09-09T02:27:13.066Z,92.50
2017-09-09T02:29:40.572Z,92.60
2017-09-09T02:32:08.080Z,92.60
2017-09-09T02:34:35.773Z,92.60
2017-09-09T02:37:03.286Z,92.50
2017-09-09T02:39:30.806Z,92.50
2017-09-09T02:41:59.361Z,92.60
2017-09-09T02:44:26.885Z,92.60
2017-09-09T02:46:54.567Z,92.60
2017-09-09T02:49:22.079Z,92.70
2017-09-09T02:51:49.796Z,92.60
2017-09-09T02:54:17.560Z,92.60
2017-09-09T02:56:45.320Z,92.70
2017-09-09T02:59:12.836Z,92.60
2017-09-09T03:01:40.355Z,92.50
2017-09-09T03:04:08.503Z,92.60
2017-09-09T03:06:36.065Z,92.60
2017-09-09T03:09:03.588Z,92.70
2017-09-09T03:11:31.225Z,92.70
2017-09-09T03:13:58.757Z,92.70
2017-09-09T03:16:26.508Z,92.60
2017-09-09T03:18:54.020Z,92.70
2017-09-09T03:21:21.531Z,92.70
2017-09-09T03:23:49.156Z,92.60
2017-09-09T03:26:16.692Z,92.70
2017-09-09T03:28:44.200Z,92.70
2017-09-09T03:31:11.727Z,92.60
2017-09-09T03:33:39.599Z,92.60
2017-09-09T03:36:07.387Z,92.70
2017-09-09T03:38:34.903Z,92.70
2017-09-09T03:41:02.583Z,92.70
2017-09-09T03:43:30.549Z,92.50
2017-09-09T03:45:58.108Z,92.60
2017-09-09T03:48:25.636Z,92.50
2017-09-09T03:50:53.366Z,92.70
2017-09-09T03:53:21.125Z,92.70
2017-09-09T03:55:48.651Z,92.60
2017-09-09T03:58:16.884Z,92.90
2017-09-09T04:00:44.404Z,93.00
2017-09-09T04:03:11.924Z,93.00
2017-09-09T04:05:39.422Z,93.00
2017-09-09T04:08:07.009Z,93.00
2017-09-09T04:10:34.542Z,92.90
2017-09-09T04:13:02.865Z,93.10
2017-09-09T04:15:30.681Z,93.00
2017-09-09T04:17:58.396Z,93.00
2017-09-09T04:20:25.911Z,93.00
2017-09-09T04:22:53.949Z,92.90
2017-09-09T04:25:21.755Z,92.80
2017-09-09T04:27:49.271Z,93.00
2017-09-09T04:30:16.994Z,92.90
2017-09-09T04:32:44.731Z,92.90
2017-09-09T04:35:12.488Z,93.10
2017-09-09T04:37:40.004Z,92.60
2017-09-09T04:40:07.520Z,92.90
2017-09-09T04:42:35.107Z,93.20
2017-09-09T04:45:02.635Z,93.00
2017-09-09T04:47:30.150Z,93.40
2017-09-09T04:49:57.812Z,93.40
2017-09-09T04:52:25.325Z,93.40
2017-09-09T04:54:53.064Z,93.40
2017-09-09T04:57:20.593Z,93.60
2017-09-09T04:59:48.292Z,93.60
2017-09-09T05:02:16.044Z,93.50
2017-09-09T05:04:43.814Z,93.40
2017-09-09T05:07:11.327Z,93.40
2017-09-09T05:09:39.001Z,93.60
2017-09-09T05:12:06.516Z,93.30
2017-09-09T05:14:34.039Z,93.40
2017-09-09T05:17:01.708Z,93.40
2017-09-09T05:19:29.230Z,93.30
2017-09-09T05:21:56.749Z,93.40
2017-09-09T05:24:24.558Z,93.40
2017-09-09T05:26:52.135Z,93.50
2017-09-09T05:29:19.900Z,93.60
2017-09-09T05:31:47.668Z,93.40
2017-09-09T05:34:15.436Z,93.30
2017-09-09T05:36:42.952Z,93.40
2017-09-09T05:39:10.656Z,93.40
2017-09-09T05:41:38.411Z,93.30
2017-09-09T05:44:06.780Z,93.00
2017-09-09T05:46:34.551Z,93.10
2017-09-09T05:49:02.325Z,93.20
2017-09-09T05:51:29.839Z,93.10
2017-09-09T05:53:57.347Z,93.30
2017-09-09T05:56:24.869Z,93.30
2017-09-09T05:58:52.457Z,93.30
2017-09-09T06:01:20.004Z,93.00
2017-09-09T06:03:47.508Z,93.00
2017-09-09T06:06:15.485Z,92.90
2017-09-09T06:08:43.040Z,92.80
2017-09-09T06:11:10.704Z,92.60
2017-09-09T06:13:38.323Z,92.70
2017-09-09T06:16:05.876Z,92.50
2017-09-09T06:18:33.420Z,92.80
2017-09-09T06:21:00.931Z,92.60
2017-09-09T06:23:29.412Z,93.00
2017-09-09T06:25:56.932Z,93.30
2017-09-09T06:28:24.692Z,92.60
2017-09-09T06:30:52.455Z,92.30
2017-09-09T06:33:20.489Z,92.30
2017-09-09T06:35:48.290Z,92.30
2017-09-09T06:38:15.801Z,92.70
2017-09-09T06:40:43.304Z,92.30
2017-09-09T06:43:10.994Z,92.00
2017-09-09T06:45:38.744Z,92.30
2017-09-09T06:48:06.263Z,92.10
2017-09-09T06:50:33.912Z,92.00
2017-09-09T06:53:01.429Z,91.90
2017-09-09T06:55:29.148Z,92.50
2017-09-09T06:57:56.665Z,92.70
2017-09-09T07:00:24.885Z,92.70
2017-09-09T07:02:52.464Z,92.80
2017-09-09T07:05:19.993Z,92.90
2017-09-09T07:07:48.220Z,92.90
2017-09-09T07:10:16.677Z,92.60
2017-09-09T07:12:44.175Z,92.60
2017-09-09T07:15:11.852Z,92.50
2017-09-09T07:17:39.660Z,92.50
2017-09-09T07:20:07.171Z,92.60
2017-09-09T07:22:34.691Z,92.70
2017-09-09T07:25:02.312Z,92.70
2017-09-09T07:27:30.044Z,92.50
2017-09-09T07:29:58.054Z,92.70
2017-09-09T07:32:25.562Z,92.30
2017-09-09T07:34:53.107Z,92.30
2017-09-09T07:37:20.616Z,92.50
2017-09-09T07:39:48.135Z,92.40
2017-09-09T07:42:15.772Z,92.10
2017-09-09T07:44:44.124Z,92.40
2017-09-09T07:47:11.619Z,92.40
2017-09-09T07:49:39.374Z,92.20
2017-09-09T07:52:06.896Z,92.40
2017-09-09T07:54:34.584Z,92.30
2017-09-09T07:57:02.100Z,92.00
2017-09-09T07:59:29.782Z,92.10
2017-09-09T08:01:58.292Z,92.30
2017-09-09T08:04:25.917Z,92.20
2017-09-09T08:06:53.429Z,92.30
2017-09-09T08:09:20.931Z,91.90
2017-09-09T08:11:48.590Z,91.70
2017-09-09T08:14:16.100Z,91.90
2017-09-09T08:16:43.620Z,91.80
2017-09-09T08:19:11.256Z,92.00
2017-09-09T08:21:38.771Z,91.80
2017-09-09T08:24:06.277Z,92.10
2017-09-09T08:26:33.939Z,92.30
2017-09-09T08:29:01.761Z,91.80
2017-09-09T08:31:29.379Z,91.30
2017-09-09T08:33:56.932Z,91.70
2017-09-09T08:36:24.440Z,91.90
2017-09-09T08:38:51.947Z,91.90
2017-09-09T08:41:19.490Z,92.20
2017-09-09T08:43:47.093Z,92.30
2017-09-09T08:46:14.614Z,92.10
2017-09-09T08:48:42.303Z,92.30
2017-09-09T08:51:09.824Z,92.40
2017-09-09T08:53:37.533Z,92.60
2017-09-09T08:56:05.292Z,92.60
2017-09-09T08:58:32.799Z,92.70
2017-09-09T09:01:00.504Z,92.80
2017-09-09T09:03:28.015Z,92.90
2017-09-09T09:05:55.704Z,92.60
2017-09-09T09:08:23.517Z,92.50
2017-09-09T09:10:51.386Z,92.10
2017-09-09T09:13:19.008Z,92.10
2017-09-09T09:15:46.519Z,92.50
2017-09-09T09:18:14.032Z,92.60
2017-09-09T09:20:41.551Z,92.70
2017-09-09T09:23:09.886Z,92.50
2017-09-09T09:25:37.406Z,92.20
2017-09-09T09:28:04.966Z,92.40
2017-09-09T09:30:33.189Z,92.50
2017-09-09T09:33:00.720Z,92.60
2017-09-09T09:35:28.940Z,92.20
2017-09-09T09:37:56.670Z,91.80
2017-09-09T09:40:24.425Z,92.60
2017-09-09T09:42:51.944Z,92.50
2017-09-09T09:45:19.468Z,92.90
2017-09-09T09:47:48.021Z,92.40
2017-09-09T09:50:15.525Z,92.40
2017-09-09T09:52:43.034Z,92.00
2017-09-09T09:55:10.670Z,92.60
2017-09-09T09:57:38.460Z,92.80
2017-09-09T10:00:05.996Z,92.50
2017-09-09T10:02:34.307Z,92.60
2017-09-09T10:05:01.866Z,93.10
2017-09-09T10:07:29.510Z,93.10
2017-09-09T10:09:57.024Z,92.40
2017-09-09T10:12:24.712Z,93.10
2017-09-09T10:14:52.240Z,93.10
2017-09-09T10:17:19.961Z,93.60
2017-09-09T10:19:47.476Z,92.90
2017-09-09T10:22:15.151Z,92.90
2017-09-09T10:24:58.379Z,92.80
2017-09-09T10:27:26.048Z,92.90
2017-09-09T10:29:53.552Z,93.00
2017-09-09T10:32:21.328Z,92.90
2017-09-09T10:34:49.047Z,92.70
2017-09-09T10:37:16.559Z,92.60
2017-09-09T10:39:44.060Z,92.70
2017-09-09T10:42:11.579Z,92.50
2017-09-09T10:44:39.177Z,92.60
2017-09-09T10:47:06.692Z,92.50
2017-09-09T10:49:34.315Z,92.80
2017-09-09T10:52:01.830Z,92.60
2017-09-09T10:54:29.540Z,92.70
2017-09-09T10:56:57.071Z,92.70
2017-09-09T10:59:25.028Z,92.90
2017-09-09T11:01:52.569Z,92.90
2017-09-09T11:04:20.284Z,93.20
2017-09-09T11:06:47.818Z,93.00
2017-09-09T11:09:15.579Z,93.30
2017-09-09T11:11:43.348Z,93.30
2017-09-09T11:14:11.128Z,93.30
2017-09-09T11:16:38.620Z,93.30
2017-09-09T11:19:06.128Z,93.20
2017-09-09T11:21:33.751Z,93.10
2017-09-09T11:24:01.385Z,93.00
2017-09-09T11:26:29.739Z,93.10
2017-09-09T11:31:31.323Z,93.10
2017-09-09T11:33:59.065Z,93.00
2017-09-09T11:36:26.577Z,92.90
2017-09-09T11:38:54.294Z,92.90
2017-09-09T11:41:21.792Z,92.70
2017-09-09T11:43:49.561Z,92.90
2017-09-09T11:46:17.258Z,92.40
2017-09-09T11:48:44.768Z,92.40
2017-09-09T11:51:13.177Z,92.60
2017-09-09T11:53:40.699Z,92.60
2017-09-09T11:56:08.963Z,91.10
2017-09-09T11:58:37.690Z,91.10
2017-09-09T12:01:05.377Z,91.00
2017-09-09T12:03:33.148Z,91.30
2017-09-09T12:06:00.900Z,90.80
2017-09-09T12:08:28.409Z,90.20
2017-09-09T12:10:55.964Z,90.40
2017-09-09T12:13:24.224Z,89.00
2017-09-09T12:15:51.744Z,89.00
2017-09-09T12:18:19.412Z,87.90
2017-09-09T12:20:47.178Z,89.40
2017-09-09T12:23:14.676Z,89.00
2017-09-09T12:25:42.244Z,85.50
2017-09-09T12:28:09.860Z,88.70
2017-09-09T12:30:37.364Z,89.50
2017-09-09T12:33:05.077Z,87.50
2017-09-09T12:35:33.252Z,86.00
2017-09-09T12:38:00.886Z,85.40
2017-09-09T12:40:29.394Z,85.30
2017-09-09T12:42:56.913Z,86.10
2017-09-09T12:45:24.529Z,85.30
2017-09-09T12:47:52.028Z,84.80
2017-09-09T12:50:19.691Z,84.40
2017-09-09T12:52:47.497Z,84.00
2017-09-09T12:55:15.000Z,84.00
2017-09-09T12:57:42.504Z,84.80
2017-09-09T13:00:10.012Z,85.10
2017-09-09T13:02:37.521Z,82.80
2017-09-09T13:05:05.077Z,83.50
2017-09-09T13:07:33.047Z,82.90
2017-09-09T13:10:00.587Z,83.40
2017-09-09T13:12:28.088Z,82.30
2017-09-09T13:14:56.785Z,81.70
2017-09-09T13:17:25.827Z,82.70
2017-09-09T13:19:53.503Z,82.60
2017-09-09T13:22:21.575Z,82.70
2017-09-09T13:24:49.080Z,83.00
2017-09-09T13:27:16.770Z,82.20
2017-09-09T13:29:44.564Z,83.00
2017-09-09T13:32:12.082Z,81.80
2017-09-09T13:34:39.579Z,82.80
2017-09-09T13:37:07.136Z,81.60
2017-09-09T13:39:34.696Z,81.50
2017-09-09T13:42:02.211Z,82.10
2017-09-09T13:44:29.721Z,81.90
2017-09-09T13:46:57.368Z,81.60
2017-09-09T13:49:25.122Z,81.20
2017-09-09T13:51:52.900Z,81.80
2017-09-09T13:54:20.415Z,81.40
2017-09-09T13:56:47.925Z,82.90
2017-09-09T13:59:15.572Z,83.70
2017-09-09T14:01:43.093Z,83.90
2017-09-09T14:04:10.599Z,86.50
2017-09-09T14:06:38.116Z,87.90
2017-09-09T14:09:05.716Z,90.00
2017-09-09T14:11:33.221Z,90.70
2017-09-09T14:14:00.732Z,90.70
2017-09-09T14:16:28.240Z,91.40
2017-09-09T14:18:55.840Z,91.60
2017-09-09T14:21:23.605Z,91.50
2017-09-09T14:23:51.911Z,92.10
2017-09-09T14:26:19.444Z,92.60
2017-09-09T14:28:47.204Z,92.40
2017-09-09T14:31:14.711Z,92.50
2017-09-09T14:33:42.219Z,92.80
2017-09-09T14:36:09.720Z,92.40
2017-09-09T14:38:37.908Z,92.30
2017-09-09T14:41:05.715Z,92.70
2017-09-09T14:43:33.224Z,92.40
2017-09-09T14:46:00.937Z,92.40
2017-09-09T14:48:28.452Z,92.20
2017-09-09T14:50:56.160Z,92.10
2017-09-09T14:53:23.883Z,92.10
2017-09-09T14:55:51.388Z,92.20
2017-09-09T14:58:18.898Z,91.60
2017-09-09T15:00:46.574Z,91.60
2017-09-09T15:03:14.211Z,91.20
2017-09-09T15:05:41.723Z,91.40
2017-09-09T15:08:09.220Z,91.20
2017-09-09T15:10:36.735Z,90.90
2017-09-09T15:13:04.444Z,90.90
2017-09-09T15:15:32.273Z,91.30
2017-09-09T15:18:00.024Z,91.20
2017-09-09T15:20:27.528Z,91.10
2017-09-09T15:22:55.239Z,91.10
2017-09-09T15:25:22.748Z,91.10
2017-09-09T15:27:50.267Z,91.30
2017-09-09T15:30:17.916Z,90.20
2017-09-09T15:32:45.420Z,89.10
2017-09-09T15:35:13.106Z,89.60
2017-09-09T15:37:40.698Z,88.90
2017-09-09T15:40:08.217Z,88.90
2017-09-09T15:42:35.993Z,88.20
2017-09-09T15:45:03.576Z,87.30
2017-09-09T15:47:31.080Z,88.30
2017-09-09T15:49:59.348Z,88.30
2017-09-09T15:52:27.168Z,89.10
2017-09-09T15:54:54.937Z,88.90
2017-09-09T15:57:22.440Z,89.40
2017-09-09T15:59:50.132Z,89.20
2017-09-09T16:02:17.692Z,89.50
2017-09-09T16:04:45.197Z,90.20
2017-09-09T16:07:12.848Z,90.20
2017-09-09T16:09:40.348Z,90.00
2017-09-09T16:12:08.055Z,90.00
2017-09-09T16:14:35.562Z,89.60
2017-09-09T16:17:03.068Z,89.70
2017-09-09T16:19:30.768Z,88.80
2017-09-09T16:21:58.493Z,89.10
2017-09-09T16:24:26.012Z,88.80
2017-09-09T16:26:53.712Z,88.80
2017-09-09T16:29:21.236Z,88.30
2017-09-09T16:31:48.937Z,87.90
2017-09-09T16:34:16.863Z,87.90
2017-09-09T16:36:44.367Z,88.50
2017-09-09T16:39:11.891Z,88.60
2017-09-09T16:41:39.400Z,88.30
2017-09-09T16:44:07.131Z,88.50
2017-09-09T16:46:34.610Z,88.30
2017-09-09T16:49:02.226Z,88.40
2017-09-09T16:51:29.725Z,88.70
2017-09-09T16:53:57.268Z,89.00
2017-09-09T16:56:24.908Z,87.60
2017-09-09T16:58:52.801Z,87.70
2017-09-09T17:01:20.302Z,87.80
2017-09-09T17:03:47.932Z,86.70
2017-09-09T17:06:15.477Z,86.90
2017-09-09T17:08:42.985Z,84.60
2017-09-09T17:11:10.671Z,86.20
2017-09-09T17:13:38.173Z,87.30
2017-09-09T17:16:05.685Z,86.50
2017-09-09T17:18:33.368Z,87.10
2017-09-09T17:21:01.145Z,87.50
2017-09-09T17:23:28.920Z,87.60
2017-09-09T17:25:56.533Z,88.20
2017-09-09T17:28:24.126Z,88.30
2017-09-09T17:30:51.623Z,88.60
2017-09-09T17:33:20.071Z,88.70
2017-09-09T17:35:47.723Z,89.00
2017-09-09T17:38:15.336Z,89.30
2017-09-09T17:40:42.952Z,89.40
2017-09-09T17:43:10.724Z,89.30
2017-09-09T17:45:38.480Z,89.50
2017-09-09T17:48:05.997Z,89.90
2017-09-09T17:50:33.621Z,89.50
2017-09-09T17:53:01.137Z,89.60
2017-09-09T17:55:28.913Z,89.50
2017-09-09T17:57:56.427Z,89.80
2017-09-09T18:00:24.148Z,89.70
2017-09-09T18:02:51.882Z,89.50
2017-09-09T18:05:19.662Z,89.60
2017-09-09T18:07:47.168Z,89.10
2017-09-09T18:10:14.835Z,88.70
2017-09-09T18:12:42.358Z,88.60
2017-09-09T18:15:09.856Z,88.80
2017-09-09T18:17:37.526Z,88.70
2017-09-09T18:20:05.147Z,89.00
2017-09-09T18:22:33.411Z,89.30
2017-09-09T18:25:01.119Z,89.20
2017-09-09T18:27:28.636Z,89.70
2017-09-09T18:29:56.134Z,89.50
2017-09-09T18:32:23.817Z,90.10
2017-09-09T18:34:51.328Z,90.30
2017-09-09T18:37:19.055Z,90.50
2017-09-09T18:39:46.556Z,90.50
2017-09-09T18:42:14.237Z,90.80
2017-09-09T18:44:41.745Z,90.70
2017-09-09T18:47:09.250Z,90.60
2017-09-09T18:49:36.919Z,90.70
2017-09-09T18:52:04.433Z,90.60
2017-09-09T18:54:32.156Z,90.60
2017-09-09T18:56:59.984Z,90.80
2017-09-09T18:59:27.491Z,90.80
2017-09-09T19:01:55.013Z,90.80
2017-09-09T19:04:22.805Z,90.80
2017-09-09T19:06:50.433Z,90.80
2017-09-09T19:09:17.953Z,90.70
2017-09-09T19:11:45.453Z,90.80
2017-09-09T19:14:13.045Z,90.70
2017-09-09T19:16:40.779Z,90.60
2017-09-09T19:19:08.305Z,90.30
2017-09-09T19:21:36.020Z,90.40
2017-09-09T19:24:03.784Z,90.60
2017-09-09T19:26:31.422Z,90.60
2017-09-09T19:28:58.916Z,90.60
2017-09-09T19:31:26.432Z,90.60
2017-09-09T19:33:53.928Z,90.60
2017-09-09T19:36:21.447Z,90.60
2017-09-09T19:38:48.949Z,90.60
2017-09-09T19:41:16.596Z,90.70
2017-09-09T19:43:44.133Z,90.60
2017-09-09T19:46:11.811Z,90.70
2017-09-09T19:48:39.316Z,90.70
2017-09-09T19:51:06.999Z,90.70
2017-09-09T19:53:34.502Z,90.70
2017-09-09T19:56:02.027Z,90.80
2017-09-09T19:58:29.676Z,90.80
2017-09-09T20:00:57.175Z,90.60
2017-09-09T20:03:25.687Z,90.80
2017-09-09T20:05:53.964Z,90.70
2017-09-09T20:08:21.694Z,90.70
2017-09-09T20:10:49.523Z,90.70
2017-09-09T20:13:17.038Z,90.60
2017-09-09T20:15:44.641Z,90.70
2017-09-09T20:18:12.159Z,90.80
2017-09-09T20:20:39.660Z,90.70
2017-09-09T20:23:07.222Z,90.60
2017-09-09T20:25:34.728Z,90.50
2017-09-09T20:28:02.240Z,90.50
2017-09-09T20:30:29.847Z,90.40
2017-09-09T20:32:57.496Z,90.30
2017-09-09T20:35:24.996Z,90.20
2017-09-09T20:37:52.495Z,90.10
2017-09-09T20:40:20.013Z,90.20
2017-09-09T20:42:47.583Z,90.20
2017-09-09T20:45:15.083Z,90.20
2017-09-09T20:47:42.598Z,90.10
2017-09-09T20:50:10.095Z,90.10
2017-09-09T20:52:37.711Z,90.30
2017-09-09T20:55:05.207Z,90.40
2017-09-09T20:57:32.732Z,90.50
2017-09-09T21:00:00.235Z,90.40
2017-09-09T21:02:27.768Z,90.40
2017-09-09T21:04:55.261Z,90.50
2017-09-09T21:07:22.788Z,90.30
2017-09-09T21:09:50.296Z,90.30
2017-09-09T21:12:18.349Z,90.20
2017-09-09T21:14:45.856Z,90.40
2017-09-09T21:17:13.360Z,90.40
2017-09-09T21:19:41.175Z,90.20
2017-09-09T21:22:08.668Z,90.10
2017-09-09T21:24:36.180Z,90.20
2017-09-09T21:27:03.748Z,90.30
2017-09-09T21:29:31.367Z,90.60
2017-09-09T21:31:58.896Z,90.50
2017-09-09T21:34:26.416Z,90.50
2017-09-09T21:36:54.114Z,90.40
2017-09-09T21:39:21.668Z,90.50
2017-09-09T21:41:49.331Z,90.40
2017-09-09T21:44:17.095Z,90.40
2017-09-09T21:46:44.587Z,90.60
2017-09-09T21:49:12.323Z,90.80
2017-09-09T21:51:39.822Z,90.40
2017-09-09T21:54:07.537Z,90.50
2017-09-09T21:56:35.297Z,90.60
2017-09-09T21:59:03.322Z,90.60
2017-09-09T22:01:30.839Z,90.70
2017-09-09T22:03:59.216Z,90.80
2017-09-09T22:06:26.720Z,90.80
2017-09-09T22:08:54.420Z,90.70
2017-09-09T22:11:22.170Z,90.50
2017-09-09T22:13:49.950Z,90.60
2017-09-09T22:16:17.716Z,90.50
2017-09-09T22:18:45.486Z,91.00
2017-09-09T22:21:13.013Z,91.10
2017-09-09T22:23:40.504Z,91.10
2017-09-09T22:26:08.184Z,91.10
2017-09-09T22:28:36.763Z,91.00
2017-09-09T22:31:04.316Z,91.30
2017-09-09T22:33:31.816Z,91.30
2017-09-09T22:35:59.512Z,91.60
2017-09-09T22:38:27.020Z,91.40
2017-09-09T22:40:54.532Z,91.60
2017-09-09T22:43:22.069Z,91.60
2017-09-09T22:45:49.625Z,91.70
2017-09-09T22:48:17.392Z,91.40
2017-09-09T22:50:44.896Z,91.40
2017-09-09T22:53:12.437Z,91.40
2017-09-09T22:55:40.306Z,91.30
2017-09-09T22:58:07.872Z,91.20
2017-09-09T23:00:35.626Z,91.40
2017-09-09T23:03:03.500Z,91.10
2017-09-09T23:05:31.118Z,90.90
2017-09-09T23:07:58.736Z,91.00
2017-09-09T23:10:27.012Z,90.90
2017-09-09T23:12:54.756Z,90.90
2017-09-09T23:15:22.283Z,91.00
2017-09-09T23:17:49.791Z,91.00
2017-09-09T23:20:18.072Z,91.50
2017-09-09T23:22:45.676Z,91.40
2017-09-09T23:25:13.191Z,91.10
2017-09-09T23:27:40.693Z,91.10
2017-09-09T23:30:08.492Z,91.20
2017-09-09T23:32:36.814Z,91.20
2017-09-09T23:35:04.328Z,91.00
2017-09-09T23:37:32.064Z,91.20
2017-09-09T23:39:59.609Z,91.30
2017-09-09T23:42:27.125Z,91.30
2017-09-09T23:44:55.399Z,91.50
2017-09-09T23:47:23.128Z,91.50
2017-09-09T23:49:50.650Z,91.60
2017-09-09T23:52:18.525Z,91.70
2017-09-09T23:54:46.028Z,91.60
2017-09-09T23:57:14.900Z,91.50
2017-09-09T23:59:42.528Z,91.60
